»·PEaware :: N7463L KSNA-KBUR

N7463L :: KSNA-KBUR

FLIGHT INFORMATION

Flight Status: Arrived
Operator: Privately registered:
United States
More flights under this callsign
Pilot: Anonymous 20191 (20191)
Aircraft: CESSNA 172 SKYHAWK
(C172)
More flights by this aircraft type
Origin: KSNA John Wayne-Orange Co
United States
Destination: KBUR Bob Hope-Burbank
United States
More flights between these airports :: More routes between these airports
Route: SLI V23 POPPR SMO125R SMO SMO311R SILEX
File this flight plan on PilotEdge
Remarks: I-3 Rating
Altitude:
(Current/Filed)
4,000ft
Speed:
(Current/Filed)
115kts
Departed: 29-Sep-18 01:58 PM
Arrived: 29-Sep-18 02:35 PM
Distance/Time
Traveled:
40nm/0:37
Distance/Time
To Go:
Arrived

Flight Plot

Page will automatically refresh every two minutes.


Map Options




Map Legend


Flown Route
Filed Route
Departure Airport
Arrival Airport
Navaid (VOR, NDB)
Fix

Horizontal Profiles

Position Reports

Time Latitude Longitude Heading Altitude Ground
Speed
29-Sep-18 13:31 33.671189 -117.868027 211 60ft 0kts
29-Sep-18 13:32 33.671189 -117.868027 211 60ft 0kts
29-Sep-18 13:33 33.671189 -117.868027 211 60ft 0kts
29-Sep-18 13:34 33.671189 -117.868027 211 60ft 0kts
29-Sep-18 13:35 33.671189 -117.868027 211 60ft 0kts
29-Sep-18 13:36 33.671189 -117.868027 211 60ft 0kts
29-Sep-18 13:37 33.671189 -117.868027 211 60ft 0kts
29-Sep-18 13:38 33.671189 -117.868027 211 60ft 0kts
29-Sep-18 13:39 33.671189 -117.868027 211 60ft 0kts
29-Sep-18 13:40 33.671189 -117.868027 211 60ft 0kts
29-Sep-18 13:41 33.671189 -117.868027 211 60ft 0kts
29-Sep-18 13:42 33.671189 -117.868027 211 60ft 0kts
29-Sep-18 13:43 33.671189 -117.868027 211 60ft 0kts
29-Sep-18 13:44 33.671189 -117.868027 211 60ft 0kts
29-Sep-18 13:45 33.671189 -117.868027 211 60ft 0kts
29-Sep-18 13:46 33.671189 -117.868027 211 60ft 0kts
29-Sep-18 13:47 33.671189 -117.868027 211 60ft 0kts
29-Sep-18 13:48 33.671157 -117.868083 256 60ft 3kts
29-Sep-18 13:49 33.672988 -117.867413 49 60ft 11kts
29-Sep-18 13:50 33.674648 -117.866768 29 60ft 5kts
29-Sep-18 13:51 33.677066 -117.865202 27 60ft 15kts
29-Sep-18 13:52 33.679935 -117.863555 308 60ft 5kts
29-Sep-18 13:53 33.679969 -117.863630 296 60ft 0kts
29-Sep-18 13:54 33.679969 -117.863630 296 60ft 0kts
29-Sep-18 13:55 33.679969 -117.863630 296 60ft 0kts
29-Sep-18 13:56 33.679969 -117.863630 296 60ft 0kts
29-Sep-18 13:57 33.679969 -117.863630 296 60ft 0kts
29-Sep-18 13:58 33.679969 -117.863630 296 60ft 0kts
29-Sep-18 13:59 33.679969 -117.863630 296 60ft 0kts
29-Sep-18 14:00 33.669804 -117.871555 224 567ft 78kts
29-Sep-18 14:01 33.656526 -117.892103 231 1760ft 79kts
29-Sep-18 14:02 33.643029 -117.912804 231 2883ft 80kts
29-Sep-18 14:03 33.629537 -117.934251 231 3925ft 81kts
29-Sep-18 14:04 33.626376 -117.961799 281 4200ft 96kts
29-Sep-18 14:05 33.632431 -117.995388 283 4047ft 104kts
29-Sep-18 14:06 33.643093 -118.027010 319 3878ft 104kts
29-Sep-18 14:07 33.665337 -118.048971 313 3874ft 104kts
29-Sep-18 14:08 33.686164 -118.072565 318 3944ft 103kts
29-Sep-18 14:09 33.707509 -118.097671 314 4130ft 110kts
29-Sep-18 14:10 33.728640 -118.127049 304 4110ft 119kts
29-Sep-18 14:11 33.752228 -118.155210 322 3919ft 117kts
29-Sep-18 14:12 33.777184 -118.180143 318 3887ft 114kts
29-Sep-18 14:13 33.799080 -118.207936 313 3915ft 115kts
29-Sep-18 14:14 33.819962 -118.236840 308 3956ft 114kts
29-Sep-18 14:15 33.840543 -118.266027 301 3987ft 114kts
29-Sep-18 14:16 33.859302 -118.297016 306 4023ft 115kts
29-Sep-18 14:17 33.881147 -118.325066 311 4066ft 114kts
29-Sep-18 14:18 33.901695 -118.345399 323 4072ft 115kts
29-Sep-18 14:19 33.929908 -118.374282 316 4071ft 114kts
29-Sep-18 14:20 33.947177 -118.393293 319 4037ft 114kts
29-Sep-18 14:21 33.950105 -118.396351 319 4031ft 114kts
29-Sep-18 14:22 33.975319 -118.420216 318 3895ft 114kts
29-Sep-18 14:23 34.003311 -118.448718 318 4002ft 112kts
29-Sep-18 14:24 34.023172 -118.469091 328 4062ft 112kts
29-Sep-18 14:25 34.049891 -118.489504 328 4085ft 114kts
29-Sep-18 14:26 34.076601 -118.511315 324 4077ft 116kts
29-Sep-18 14:27 34.102737 -118.533955 324 4086ft 116kts
29-Sep-18 14:28 34.130019 -118.554905 325 4073ft 116kts
29-Sep-18 14:29 34.157158 -118.576586 330 4019ft 116kts
29-Sep-18 14:30 34.183097 -118.564779 61 3675ft 113kts
29-Sep-18 14:31 34.197078 -118.531618 65 3322ft 109kts
29-Sep-18 14:32 34.199262 -118.495200 92 2964ft 109kts
29-Sep-18 14:33 34.199119 -118.464418 89 2282ft 92kts
29-Sep-18 14:34 34.198646 -118.435958 88 1719ft 85kts
29-Sep-18 14:35 34.198460 -118.405248 91 1361ft 95kts
29-Sep-18 14:36 34.198015 -118.376889 91 892ft 72kts
29-Sep-18 14:37 34.197866 -118.360192 59 715ft 2kts
29-Sep-18 14:38 34.199464 -118.358132 311 716ft 4kts
29-Sep-18 14:39 34.200466 -118.359237 101 723ft 5kts
29-Sep-18 14:40 34.200453 -118.359066 86 722ft 0kts

Navigation Log

Ident Type
1. KSNA Airport
2. SLI Navaid
3. POPPR Fix
4. SMO Navaid
5. SILEX Fix
6. KBUR Airport